Time;durP1;ratioP1;P1;durP2;ratioP2;P2;SDS_P1;SDS_P2;PMS_P1;PMS_P2;Temp;Humidity;BMP_temperature;BMP_pressure;BME280_temperature;BME280_humidity;BME280_pressure;Samples;Min_cycle;Max_cycle;Signal;HPM_P1;HPM_P2
2022/01/10 00:02:10;;;;;;;24.00;8.27;;;2.30;99.90;;;;;;5031109;28;20411;-60
2022/01/10 00:04:36;;;;;;;22.40;8.82;;;2.20;99.90;;;;;;5011825;28;20164;-58
2022/01/10 00:07:03;;;;;;;25.55;8.18;;;2.20;99.90;;;;;;5029898;28;20445;-60
2022/01/10 00:09:28;;;;;;;24.45;8.35;;;2.10;99.90;;;;;;5030619;28;20415;-60
2022/01/10 00:11:54;;;;;;;26.02;8.10;;;2.00;99.90;;;;;;5032433;28;20037;-58
2022/01/10 00:14:20;;;;;;;27.63;10.07;;;1.90;99.90;;;;;;5025188;28;20034;-60
2022/01/10 00:16:47;;;;;;;31.52;8.65;;;1.80;99.90;;;;;;5030650;28;20163;-59
2022/01/10 00:19:13;;;;;;;21.95;8.65;;;1.80;99.90;;;;;;5026848;28;20040;-59
2022/01/10 00:21:39;;;;;;;26.65;9.65;;;1.70;99.90;;;;;;5031183;28;20483;-60
2022/01/10 00:24:05;;;;;;;25.77;9.55;;;1.60;99.90;;;;;;5029982;28;20079;-60
2022/01/10 00:26:31;;;;;;;24.85;9.02;;;1.60;99.90;;;;;;5031483;28;20030;-59
2022/01/10 00:28:57;;;;;;;30.85;9.90;;;1.50;99.90;;;;;;5026631;28;20037;-58
2022/01/10 00:31:22;;;;;;;40.72;10.45;;;1.40;99.90;;;;;;5032386;28;20033;-58
2022/01/10 00:33:48;;;;;;;34.40;11.15;;;1.30;99.90;;;;;;5031422;28;20037;-59
2022/01/10 00:36:14;;;;;;;28.42;10.60;;;1.30;99.90;;;;;;5032264;28;20029;-58
2022/01/10 00:38:40;;;;;;;36.08;13.73;;;1.20;99.90;;;;;;5031072;28;20041;-59
2022/01/10 00:41:05;;;;;;;34.72;12.75;;;1.20;99.90;;;;;;5031852;28;20060;-60
2022/01/10 00:43:33;;;;;;;31.85;11.48;;;1.10;99.90;;;;;;5031624;28;20064;-59
2022/01/10 00:46:00;;;;;;;27.73;10.60;;;1.10;99.90;;;;;;5031813;28;20116;-60
2022/01/10 00:48:26;;;;;;;38.38;10.93;;;1.00;99.90;;;;;;5030999;28;20029;-58
2022/01/10 00:50:52;;;;;;;36.33;12.05;;;1.00;99.90;;;;;;5032152;28;20364;-60
2022/01/10 00:53:18;;;;;;;33.28;12.05;;;1.00;99.90;;;;;;5031011;28;20105;-59
2022/01/10 00:55:44;;;;;;;30.35;15.18;;;0.90;99.90;;;;;;5031191;28;20036;-57
2022/01/10 00:58:09;;;;;;;33.50;14.68;;;0.90;99.90;;;;;;5031841;28;20036;-59
2022/01/10 01:00:35;;;;;;;35.08;15.73;;;0.80;99.90;;;;;;5031280;28;20378;-58
2022/01/10 01:03:01;;;;;;;41.45;16.05;;;0.90;99.90;;;;;;5027274;28;20098;-60
2022/01/10 01:05:29;;;;;;;42.88;17.38;;;0.90;99.90;;;;;;5012127;28;20057;-60
2022/01/10 01:07:54;;;;;;;39.67;16.63;;;1.00;99.90;;;;;;5023629;28;20044;-60
2022/01/10 01:13:11;;;;;;;36.85;16.02;;;1.20;99.90;;;;;;5036241;28;20846;-59
2022/01/10 01:15:56;;;;;;;37.05;15.00;;;1.30;99.90;;;;;;5017555;28;20514;-59
2022/01/10 01:26:25;;;;;;;24.73;12.02;;;1.60;99.90;;;;;;5013926;28;20101;-59
2022/01/10 01:28:51;;;;;;;29.75;10.75;;;1.70;99.90;;;;;;5015212;28;20405;-59
2022/01/10 01:31:17;;;;;;;23.13;9.85;;;1.70;99.90;;;;;;5013487;28;20022;-60
2022/01/10 01:33:42;;;;;;;31.73;10.05;;;1.80;99.90;;;;;;5015938;28;20021;-60
2022/01/10 01:36:08;;;;;;;23.00;9.68;;;1.70;99.90;;;;;;5017382;28;20053;-60
2022/01/10 01:38:34;;;;;;;27.10;10.13;;;1.80;99.90;;;;;;5021240;28;20052;-60
2022/01/10 01:41:18;;;;;;;21.58;10.32;;;1.80;99.90;;;;;;5026099;28;20029;-59
2022/01/10 01:43:45;;;;;;;30.13;9.75;;;1.70;99.90;;;;;;5022147;28;20037;-60
2022/01/10 01:46:10;;;;;;;25.38;9.90;;;1.70;99.90;;;;;;5012855;28;20026;-59
2022/01/10 01:48:36;;;;;;;28.67;10.77;;;1.60;99.90;;;;;;5026591;28;20056;-58
2022/01/10 01:51:03;;;;;;;26.08;11.02;;;1.60;99.90;;;;;;5018678;28;20025;-55
2022/01/10 01:53:30;;;;;;;39.00;12.25;;;1.50;99.90;;;;;;5016403;28;20136;-59
2022/01/10 01:55:57;;;;;;;28.05;10.68;;;1.40;99.90;;;;;;5018207;28;20038;-60
2022/01/10 01:58:23;;;;;;;38.25;12.75;;;1.20;99.90;;;;;;5022916;28;20033;-59
2022/01/10 02:00:48;;;;;;;37.75;12.00;;;1.20;99.90;;;;;;5016389;28;20040;-60
2022/01/10 02:03:14;;;;;;;37.13;14.00;;;1.10;99.90;;;;;;5018980;28;20033;-61
2022/01/10 02:05:39;;;;;;;36.20;13.40;;;1.00;99.90;;;;;;5003707;28;20516;-59
2022/01/10 02:08:05;;;;;;;32.03;12.90;;;0.90;99.90;;;;;;5019513;28;20148;-59
2022/01/10 02:10:31;;;;;;;23.05;13.15;;;0.90;99.90;;;;;;5017314;28;20017;-58
2022/01/10 02:12:56;;;;;;;36.33;14.82;;;0.90;99.90;;;;;;5018473;28;20521;-60
2022/01/10 02:15:33;;;;;;;42.33;16.13;;;0.80;99.90;;;;;;5021927;28;20028;-60
2022/01/10 02:18:00;;;;;;;33.10;16.33;;;0.80;99.90;;;;;;5019472;28;20029;-59
2022/01/10 02:20:32;;;;;;;46.92;16.33;;;0.80;99.90;;;;;;5019605;28;20482;-59
2022/01/10 02:22:57;;;;;;;36.13;15.90;;;0.80;99.90;;;;;;5015582;28;20018;-58
2022/01/10 02:25:23;;;;;;;44.53;17.45;;;0.80;99.90;;;;;;5017283;28;20030;-59
2022/01/10 02:27:49;;;;;;;40.90;17.40;;;0.80;99.90;;;;;;5022485;28;20025;-58
2022/01/10 02:30:15;;;;;;;38.97;18.15;;;0.80;99.90;;;;;;5028809;28;20021;-59
2022/01/10 02:32:40;;;;;;;44.10;17.38;;;0.80;99.90;;;;;;5029836;28;20029;-59
2022/01/10 02:35:21;;;;;;;39.88;16.08;;;0.80;99.90;;;;;;5029252;28;20083;-59
2022/01/10 02:37:48;;;;;;;41.47;15.98;;;0.70;99.90;;;;;;5029727;28;20031;-59
2022/01/10 02:40:15;;;;;;;48.40;15.13;;;0.70;99.90;;;;;;5030146;28;20018;-59
2022/01/10 02:42:41;;;;;;;32.10;14.65;;;0.60;99.90;;;;;;5028014;28;20037;-58
2022/01/10 02:45:07;;;;;;;42.80;16.80;;;0.50;99.90;;;;;;5036203;28;20029;-58
2022/01/10 02:47:32;;;;;;;33.55;14.05;;;0.50;99.90;;;;;;5027151;28;20021;-59
2022/01/10 02:49:58;;;;;;;41.55;15.18;;;0.40;99.90;;;;;;5029460;28;20075;-58
2022/01/10 02:52:24;;;;;;;35.75;14.70;;;0.40;99.90;;;;;;5026668;28;20437;-59
2022/01/10 02:54:50;;;;;;;40.28;14.45;;;0.40;99.90;;;;;;5028807;28;20025;-59
2022/01/10 02:57:15;;;;;;;38.15;14.10;;;0.30;99.90;;;;;;5029871;28;20087;-60
2022/01/10 02:59:42;;;;;;;38.70;14.50;;;0.30;99.90;;;;;;5027787;28;20033;-59
2022/01/10 03:02:09;;;;;;;41.00;16.85;;;0.30;99.90;;;;;;5028890;28;20107;-58
2022/01/10 03:04:35;;;;;;;49.03;18.98;;;0.30;99.90;;;;;;5011120;28;20041;-60
2022/01/10 03:07:00;;;;;;;42.28;16.17;;;0.20;99.90;;;;;;5028928;28;20087;-59
2022/01/10 03:09:26;;;;;;;54.35;15.38;;;0.20;99.90;;;;;;5028122;28;20040;-60
2022/01/10 03:11:52;;;;;;;61.63;14.32;;;0.30;99.90;;;;;;5029793;28;20060;-60
2022/01/10 03:14:18;;;;;;;45.53;12.05;;;0.30;99.90;;;;;;5028678;28;20387;-59
2022/01/10 03:16:44;;;;;;;128.70;14.02;;;0.20;99.90;;;;;;5027901;28;20042;-58
2022/01/10 03:19:09;;;;;;;137.27;13.15;;;0.20;99.90;;;;;;5028167;28;20030;-59
2022/01/10 03:21:35;;;;;;;84.93;14.63;;;0.20;99.90;;;;;;5026299;28;20402;-59
2022/01/10 03:24:01;;;;;;;61.35;10.18;;;0.10;99.90;;;;;;5027601;28;20387;-59
2022/01/10 03:26:27;;;;;;;143.88;12.27;;;0.10;99.90;;;;;;5033391;28;20618;-58
2022/01/10 03:28:53;;;;;;;206.55;15.80;;;0.10;99.90;;;;;;5032687;28;20029;-58
2022/01/10 03:31:22;;;;;;;147.02;14.73;;;0.00;99.90;;;;;;5033337;28;20036;-59
2022/01/10 03:33:50;;;;;;;199.65;16.38;;;0.00;99.90;;;;;;5032911;28;20025;-59
2022/01/10 03:36:16;;;;;;;159.05;14.95;;;0.00;99.90;;;;;;5033950;28;20041;-59
2022/01/10 03:38:42;;;;;;;153.60;14.63;;;0.00;99.90;;;;;;5031851;28;20026;-59
2022/01/10 03:41:09;;;;;;;220.45;16.25;;;0.00;99.90;;;;;;5031606;28;20037;-58
2022/01/10 03:43:34;;;;;;;73.18;11.18;;;0.00;99.90;;;;;;5029455;28;20029;-58
2022/01/10 03:46:00;;;;;;;277.40;19.38;;;0.00;99.90;;;;;;5030427;28;20606;-59
2022/01/10 03:48:25;;;;;;;131.60;12.77;;;-0.10;99.90;;;;;;5032161;28;20653;-59
2022/01/10 03:50:51;;;;;;;99.45;13.80;;;-0.10;99.90;;;;;;5032589;28;20071;-59
2022/01/10 03:53:17;;;;;;;69.43;12.00;;;-0.10;99.90;;;;;;5031999;28;20032;-58
2022/01/10 03:55:42;;;;;;;55.85;11.95;;;-0.10;99.90;;;;;;5032267;28;20056;-58
2022/01/10 03:58:08;;;;;;;59.45;10.75;;;-0.20;99.90;;;;;;5031931;28;20021;-59
2022/01/10 04:00:33;;;;;;;129.23;14.32;;;-0.10;99.90;;;;;;5023079;28;20030;-58
2022/01/10 04:03:04;;;;;;;250.52;19.85;;;-0.10;99.90;;;;;;5028906;28;20108;-58
2022/01/10 04:05:30;;;;;;;138.02;15.80;;;-0.20;99.90;;;;;;5033214;28;20021;-57
2022/01/10 04:07:55;;;;;;;193.40;17.48;;;-0.20;99.90;;;;;;5031093;28;20072;-59
2022/01/10 04:10:21;;;;;;;327.75;22.02;;;-0.20;99.90;;;;;;5032997;28;20029;-60
2022/01/10 04:12:47;;;;;;;163.30;14.85;;;-0.20;99.90;;;;;;5032309;28;20021;-59
2022/01/10 04:15:12;;;;;;;132.38;14.15;;;-0.20;99.90;;;;;;5031935;28;20022;-58
2022/01/10 04:17:38;;;;;;;65.15;11.13;;;-0.20;99.90;;;;;;5031678;28;20030;-59
2022/01/10 04:20:05;;;;;;;186.75;15.75;;;-0.20;99.90;;;;;;5031758;28;20061;-59
2022/01/10 04:22:31;;;;;;;55.92;11.98;;;-0.20;99.90;;;;;;5032109;28;20033;-58
2022/01/10 04:24:57;;;;;;;113.40;12.00;;;-0.30;99.90;;;;;;5029670;28;20021;-59
2022/01/10 04:27:22;;;;;;;95.55;13.32;;;-0.30;99.90;;;;;;5029195;28;20395;-58
2022/01/10 04:29:48;;;;;;;49.50;11.93;;;-0.30;99.90;;;;;;5027459;28;20117;-57
2022/01/10 04:32:13;;;;;;;43.95;11.73;;;-0.30;99.90;;;;;;5029600;28;20052;-60
2022/01/10 04:34:39;;;;;;;87.70;12.80;;;-0.40;99.90;;;;;;5031938;28;20116;-57
2022/01/10 04:37:06;;;;;;;107.55;13.32;;;-0.40;99.90;;;;;;5030810;28;20493;-58
2022/01/10 04:39:32;;;;;;;120.97;13.00;;;-0.40;99.90;;;;;;5031686;28;20112;-58
2022/01/10 04:41:58;;;;;;;93.67;12.57;;;-0.40;99.90;;;;;;5031637;28;20164;-59
2022/01/10 04:44:23;;;;;;;82.47;12.88;;;-0.50;99.90;;;;;;5031164;28;20029;-60
2022/01/10 04:46:49;;;;;;;45.88;12.18;;;-0.50;99.90;;;;;;5030021;28;20064;-60
2022/01/10 04:49:26;;;;;;;142.70;18.23;;;-0.50;99.90;;;;;;5028976;28;20119;-58
2022/01/10 04:51:53;;;;;;;82.32;11.50;;;-0.50;99.90;;;;;;5028873;28;20025;-59
2022/01/10 04:54:18;;;;;;;231.85;17.50;;;-0.50;99.90;;;;;;5031429;28;20100;-60
2022/01/10 04:56:45;;;;;;;78.73;12.33;;;-0.40;99.90;;;;;;5032067;28;20109;-60
2022/01/10 04:59:11;;;;;;;268.63;21.73;;;-0.50;99.90;;;;;;5027076;28;20075;-60
2022/01/10 05:01:38;;;;;;;77.47;11.75;;;-0.50;99.90;;;;;;5029201;28;21340;-59
2022/01/10 05:04:03;;;;;;;103.22;14.05;;;-0.50;99.90;;;;;;5030890;28;20061;-60
2022/01/10 05:06:29;;;;;;;79.85;12.75;;;-0.50;99.90;;;;;;5029745;28;20056;-59
2022/01/10 05:08:55;;;;;;;46.60;13.02;;;-0.50;99.90;;;;;;5030890;28;20032;-57
2022/01/10 05:11:21;;;;;;;21.13;10.50;;;-0.50;99.90;;;;;;5031975;28;20093;-59
2022/01/10 05:13:47;;;;;;;23.40;10.45;;;-0.50;99.90;;;;;;5030910;28;20021;-57
2022/01/10 05:16:14;;;;;;;26.60;11.60;;;-0.50;99.90;;;;;;5031066;28;20064;-58
2022/01/10 05:18:40;;;;;;;29.00;13.95;;;-0.40;99.90;;;;;;5029105;28;20037;-56
2022/01/10 05:21:05;;;;;;;24.70;13.30;;;-0.40;99.90;;;;;;5024074;28;20033;-59
2022/01/10 05:23:34;;;;;;;25.92;13.63;;;-0.30;99.90;;;;;;5028297;28;20083;-60
2022/01/10 05:25:59;;;;;;;19.40;10.63;;;-0.30;99.90;;;;;;5031124;28;20041;-59
2022/01/10 05:28:25;;;;;;;24.42;12.35;;;-0.10;99.90;;;;;;5029989;28;20037;-58
2022/01/10 05:30:52;;;;;;;25.55;12.48;;;-0.10;99.90;;;;;;5028114;28;20018;-59
2022/01/10 05:33:18;;;;;;;25.38;11.15;;;0.00;99.90;;;;;;5030295;28;20032;-61
2022/01/10 05:35:46;;;;;;;24.65;13.23;;;0.10;99.90;;;;;;5030974;28;20026;-58
2022/01/10 05:38:13;;;;;;;24.35;12.43;;;0.20;99.90;;;;;;5030515;28;20033;-59
2022/01/10 05:40:40;;;;;;;30.77;13.30;;;0.20;99.90;;;;;;5030698;28;20152;-57
2022/01/10 05:43:06;;;;;;;26.13;12.10;;;0.40;99.90;;;;;;5029802;28;20083;-60
2022/01/10 05:45:31;;;;;;;28.77;12.95;;;0.40;99.90;;;;;;5028717;28;20566;-58
2022/01/10 05:48:06;;;;;;;24.85;13.18;;;0.40;99.90;;;;;;5028926;28;20029;-59
2022/01/10 05:50:34;;;;;;;26.98;12.88;;;0.50;99.90;;;;;;5026888;28;20103;-59
2022/01/10 05:53:00;;;;;;;19.63;11.38;;;0.50;99.90;;;;;;5029914;28;20034;-60
2022/01/10 05:55:26;;;;;;;21.92;11.65;;;0.60;99.90;;;;;;5030844;28;20091;-60
2022/01/10 05:57:52;;;;;;;22.15;10.40;;;0.60;99.90;;;;;;5030789;28;20483;-59
2022/01/10 06:00:20;;;;;;;22.23;11.70;;;0.70;99.90;;;;;;5030402;28;20036;-58
2022/01/10 06:02:46;;;;;;;21.25;10.68;;;0.70;99.90;;;;;;5029135;28;20076;-57
2022/01/10 06:05:11;;;;;;;20.48;10.80;;;0.70;99.90;;;;;;5029521;28;20029;-59
2022/01/10 06:07:37;;;;;;;21.42;10.40;;;0.80;99.90;;;;;;5030595;28;20037;-59
2022/01/10 06:10:06;;;;;;;18.88;10.82;;;0.90;99.90;;;;;;5030565;28;20034;-58
2022/01/10 06:12:32;;;;;;;18.10;9.75;;;0.90;99.90;;;;;;5025609;28;20067;-59
2022/01/10 06:14:58;;;;;;;20.13;9.88;;;0.80;99.90;;;;;;5026250;28;20479;-57
2022/01/10 06:17:23;;;;;;;16.60;9.93;;;0.90;99.90;;;;;;5024813;28;20436;-58
2022/01/10 06:19:49;;;;;;;18.05;10.60;;;0.90;99.90;;;;;;5028462;28;20490;-60
2022/01/10 06:22:14;;;;;;;18.75;9.52;;;0.90;99.90;;;;;;5029897;28;20035;-59
2022/01/10 06:24:40;;;;;;;14.35;8.38;;;0.90;99.90;;;;;;5021079;28;20495;-59
2022/01/10 06:27:06;;;;;;;14.00;8.93;;;0.90;99.90;;;;;;5028589;28;20046;-59
2022/01/10 06:29:32;;;;;;;22.70;9.63;;;0.80;99.90;;;;;;5028530;28;20120;-59
2022/01/10 06:31:57;;;;;;;16.23;9.30;;;0.80;99.90;;;;;;5029604;28;20033;-60
2022/01/10 06:34:23;;;;;;;13.85;7.72;;;0.80;99.90;;;;;;5029419;28;20432;-59
2022/01/10 06:36:48;;;;;;;14.65;7.65;;;0.90;99.90;;;;;;5028127;28;20460;-60
2022/01/10 06:39:14;;;;;;;16.83;9.65;;;0.90;99.90;;;;;;5027932;28;20503;-60
2022/01/10 06:41:39;;;;;;;16.17;8.82;;;0.90;99.90;;;;;;5029222;28;20056;-59
2022/01/10 06:44:05;;;;;;;16.25;9.40;;;0.90;99.90;;;;;;5027764;28;20374;-59
2022/01/10 06:46:31;;;;;;;16.80;9.45;;;0.90;99.90;;;;;;5028820;28;20493;-57
2022/01/10 06:48:56;;;;;;;18.08;10.35;;;0.90;99.90;;;;;;5029230;28;20031;-59
2022/01/10 06:51:22;;;;;;;19.95;10.80;;;0.80;99.90;;;;;;5028374;28;20030;-59
2022/01/10 06:53:47;;;;;;;22.27;11.80;;;0.90;99.90;;;;;;5023537;28;20453;-59
2022/01/10 06:56:13;;;;;;;23.45;11.57;;;0.90;99.90;;;;;;5028932;28;20026;-60
2022/01/10 06:58:39;;;;;;;23.45;11.38;;;0.90;99.90;;;;;;5028581;28;20496;-58
2022/01/10 07:01:05;;;;;;;22.83;12.15;;;1.00;99.90;;;;;;5029271;28;20112;-57
2022/01/10 07:03:30;;;;;;;34.13;13.60;;;1.00;99.90;;;;;;5028294;28;20427;-60
2022/01/10 07:05:56;;;;;;;24.88;12.07;;;1.00;99.90;;;;;;5029411;28;20132;-60
2022/01/10 07:08:22;;;;;;;26.00;12.30;;;1.10;99.90;;;;;;5025464;28;20030;-60
2022/01/10 07:10:51;;;;;;;23.73;12.23;;;1.10;99.90;;;;;;5024318;28;20108;-58
2022/01/10 07:13:17;;;;;;;24.27;12.15;;;1.10;99.90;;;;;;5026297;28;20053;-59
2022/01/10 07:15:45;;;;;;;25.33;13.85;;;1.20;99.90;;;;;;5027802;28;20099;-59
2022/01/10 07:18:11;;;;;;;40.92;12.88;;;1.20;99.90;;;;;;5012589;28;20069;-60
2022/01/10 07:20:36;;;;;;;33.60;13.57;;;1.20;99.90;;;;;;5028802;28;20055;-60
2022/01/10 07:23:02;;;;;;;29.13;14.32;;;1.20;99.90;;;;;;5028802;28;20079;-59
2022/01/10 07:25:28;;;;;;;28.73;13.82;;;1.30;99.90;;;;;;5029617;28;20083;-59
2022/01/10 07:27:54;;;;;;;44.40;19.95;;;1.30;99.90;;;;;;5026644;28;20018;-60
2022/01/10 07:30:19;;;;;;;48.08;20.70;;;1.20;99.90;;;;;;5027084;28;20545;-60
2022/01/10 07:32:45;;;;;;;46.33;25.05;;;1.20;99.90;;;;;;5027509;28;20101;-60
2022/01/10 07:35:11;;;;;;;32.40;17.73;;;1.20;99.90;;;;;;5023691;28;20041;-60
2022/01/10 07:37:37;;;;;;;20.00;11.77;;;1.20;99.90;;;;;;5025579;28;20076;-58
2022/01/10 07:40:03;;;;;;;18.15;10.10;;;1.30;99.90;;;;;;5027315;28;20029;-60
2022/01/10 07:42:29;;;;;;;18.05;11.15;;;1.30;99.90;;;;;;5027868;28;20479;-59
2022/01/10 07:44:55;;;;;;;19.40;12.50;;;1.10;99.90;;;;;;5025707;28;20092;-60
2022/01/10 07:47:21;;;;;;;24.17;13.55;;;1.10;99.90;;;;;;5022883;28;20033;-58
2022/01/10 07:49:46;;;;;;;21.95;14.15;;;1.10;99.90;;;;;;5028899;28;20040;-59
2022/01/10 07:52:12;;;;;;;27.05;12.65;;;1.00;99.90;;;;;;5030283;28;20123;-60
2022/01/10 07:54:38;;;;;;;65.20;27.35;;;1.00;99.90;;;;;;5024310;28;20032;-59
2022/01/10 07:57:04;;;;;;;66.88;30.10;;;0.90;99.90;;;;;;5030546;28;20034;-60
2022/01/10 07:59:30;;;;;;;63.45;29.35;;;0.90;99.90;;;;;;5026592;28;20487;-59
2022/01/10 08:01:55;;;;;;;62.05;29.63;;;0.90;99.90;;;;;;5027336;28;20125;-59
2022/01/10 08:04:21;;;;;;;69.35;32.03;;;0.90;99.90;;;;;;5027044;28;20057;-59
2022/01/10 08:06:46;;;;;;;88.18;38.08;;;0.90;99.90;;;;;;5029161;28;20029;-57
2022/01/10 08:09:12;;;;;;;75.65;34.40;;;1.00;99.90;;;;;;5020600;28;20373;-59
2022/01/10 08:11:38;;;;;;;40.10;20.38;;;1.00;99.90;;;;;;5024576;28;20429;-58
2022/01/10 08:14:05;;;;;;;43.42;17.08;;;1.10;99.90;;;;;;5028599;28;20025;-60
2022/01/10 08:16:31;;;;;;;31.02;14.18;;;1.20;99.90;;;;;;5021375;28;20048;-59
2022/01/10 08:18:56;;;;;;;33.67;12.70;;;1.30;99.90;;;;;;5028761;28;20033;-59
2022/01/10 08:21:22;;;;;;;29.40;13.77;;;1.30;99.90;;;;;;5031108;28;20061;-58
2022/01/10 08:23:47;;;;;;;29.92;13.43;;;1.40;99.90;;;;;;5025685;28;20384;-60
2022/01/10 08:26:13;;;;;;;26.20;11.98;;;1.50;99.90;;;;;;5030495;28;20399;-58
2022/01/10 08:28:39;;;;;;;21.98;11.88;;;1.60;99.90;;;;;;5030799;28;20075;-59
2022/01/10 08:31:05;;;;;;;33.17;14.32;;;1.60;99.90;;;;;;5023209;28;20051;-60
2022/01/10 08:33:31;;;;;;;23.17;12.77;;;1.70;99.90;;;;;;5022592;28;20038;-60
2022/01/10 08:35:58;;;;;;;29.95;13.52;;;1.80;99.90;;;;;;5024173;28;20037;-60
2022/01/10 08:38:24;;;;;;;32.03;14.13;;;1.80;99.90;;;;;;5008622;28;20034;-58
2022/01/10 08:40:49;;;;;;;23.95;12.88;;;1.80;99.90;;;;;;5009896;28;20036;-59
2022/01/10 08:43:16;;;;;;;33.92;13.30;;;1.80;99.90;;;;;;5010429;28;20706;-60
2022/01/10 08:45:42;;;;;;;31.70;12.63;;;1.80;99.90;;;;;;5007919;28;20056;-60
2022/01/10 08:48:08;;;;;;;24.50;11.30;;;1.80;99.90;;;;;;5010907;28;20022;-60
2022/01/10 08:50:35;;;;;;;21.95;13.35;;;1.80;99.90;;;;;;5006719;28;20404;-59
2022/01/10 08:53:03;;;;;;;25.38;13.18;;;1.80;99.90;;;;;;5008158;28;20018;-59
2022/01/10 08:55:29;;;;;;;27.80;14.07;;;1.80;99.90;;;;;;5011657;28;20026;-59
2022/01/10 08:57:55;;;;;;;21.52;12.80;;;1.70;99.90;;;;;;5012067;28;20537;-60
2022/01/10 09:00:20;;;;;;;30.92;14.00;;;1.70;99.90;;;;;;5009087;28;20030;-59
2022/01/10 09:02:46;;;;;;;23.27;12.68;;;1.70;99.90;;;;;;5016281;28;20030;-60
2022/01/10 09:05:11;;;;;;;27.33;13.75;;;1.60;99.90;;;;;;4995830;28;20042;-60
2022/01/10 09:07:37;;;;;;;25.90;14.73;;;1.60;99.90;;;;;;5008426;28;20439;-58
2022/01/10 09:10:04;;;;;;;34.35;14.18;;;1.70;99.90;;;;;;5008549;28;20488;-60
2022/01/10 09:12:31;;;;;;;28.88;14.50;;;1.70;99.90;;;;;;5009131;28;20117;-58
2022/01/10 09:14:56;;;;;;;28.23;15.50;;;1.80;99.90;;;;;;5007502;28;20157;-59
2022/01/10 09:17:22;;;;;;;34.55;16.23;;;1.80;99.90;;;;;;5002434;28;20104;-60
2022/01/10 09:19:47;;;;;;;37.38;17.08;;;1.80;99.90;;;;;;5006230;28;20026;-60
2022/01/10 09:22:13;;;;;;;43.55;17.98;;;1.80;99.90;;;;;;5010879;28;20094;-60
2022/01/10 09:24:39;;;;;;;41.70;17.92;;;1.80;99.90;;;;;;5000489;28;20034;-60
2022/01/10 09:27:05;;;;;;;40.63;20.08;;;1.90;99.90;;;;;;5007045;28;20038;-59
2022/01/10 09:29:31;;;;;;;43.17;20.67;;;1.90;99.90;;;;;;5004468;28;20037;-60
2022/01/10 09:31:56;;;;;;;55.03;21.17;;;2.00;99.90;;;;;;5010770;28;20408;-60
2022/01/10 09:34:22;;;;;;;39.78;20.88;;;2.10;99.90;;;;;;5005152;28;20460;-60
2022/01/10 09:36:48;;;;;;;37.47;19.13;;;2.10;99.90;;;;;;5009524;28;20025;-60
2022/01/10 09:39:14;;;;;;;37.25;18.27;;;2.10;99.90;;;;;;5009710;28;20026;-60
2022/01/10 09:41:41;;;;;;;42.83;17.20;;;2.10;99.90;;;;;;5009911;28;20128;-60
2022/01/10 09:44:06;;;;;;;37.95;15.95;;;2.20;99.90;;;;;;5010004;28;20037;-60
2022/01/10 09:46:33;;;;;;;41.38;20.40;;;2.20;99.90;;;;;;5006450;28;20037;-60
2022/01/10 09:49:01;;;;;;;36.30;17.73;;;2.20;99.90;;;;;;4986152;28;20053;-60
2022/01/10 09:51:28;;;;;;;33.25;17.55;;;2.30;99.90;;;;;;5033655;28;20034;-60
2022/01/10 09:53:56;;;;;;;45.25;19.27;;;2.30;99.90;;;;;;5023462;28;20364;-60
2022/01/10 09:56:22;;;;;;;47.42;20.50;;;2.30;99.90;;;;;;5021707;28;20573;-60
2022/01/10 09:58:48;;;;;;;46.45;19.63;;;2.30;99.90;;;;;;5022601;28;20017;-60
2022/01/10 10:01:16;;;;;;;46.78;21.25;;;2.30;99.90;;;;;;5021972;28;20590;-60
2022/01/10 10:03:49;;;;;;;63.17;30.63;;;2.40;99.90;;;;;;5022703;28;20021;-59
2022/01/10 10:06:17;;;;;;;70.00;30.52;;;2.40;99.90;;;;;;5023134;28;20045;-60
2022/01/10 10:08:43;;;;;;;45.08;21.02;;;2.50;99.90;;;;;;5021767;28;20101;-60
2022/01/10 10:11:10;;;;;;;44.80;22.55;;;2.60;99.90;;;;;;5025924;28;20105;-59
2022/01/10 10:13:53;;;;;;;44.53;21.33;;;2.60;99.90;;;;;;5020574;28;20057;-59
2022/01/10 10:16:19;;;;;;;51.30;23.67;;;2.60;99.90;;;;;;5021789;28;20033;-59
2022/01/10 10:18:47;;;;;;;49.55;22.40;;;2.70;99.90;;;;;;5028506;28;20063;-59
2022/01/10 10:21:18;;;;;;;43.17;21.85;;;2.70;99.90;;;;;;5023569;28;20025;-59
2022/01/10 10:23:49;;;;;;;52.88;23.00;;;2.80;99.90;;;;;;5029148;28;20658;-59
2022/01/10 10:26:21;;;;;;;46.58;21.92;;;2.90;99.90;;;;;;5030656;28;20037;-59
2022/01/10 10:28:48;;;;;;;50.35;22.55;;;3.00;99.90;;;;;;5028804;28;20053;-58
2022/01/10 10:31:33;;;;;;;49.28;21.88;;;3.00;99.90;;;;;;5028405;28;20025;-59
2022/01/10 10:34:04;;;;;;;53.35;22.65;;;3.10;99.90;;;;;;5023025;28;20032;-60
2022/01/10 10:36:32;;;;;;;53.95;23.38;;;3.20;99.90;;;;;;5030099;28;20033;-60
2022/01/10 10:39:07;;;;;;;56.95;25.48;;;3.30;99.90;;;;;;5029912;28;20498;-59
2022/01/10 10:41:34;;;;;;;53.67;23.58;;;3.40;99.90;;;;;;5030131;28;20034;-60
2022/01/10 10:44:01;;;;;;;48.33;24.88;;;3.50;99.90;;;;;;5027257;28;20490;-60
2022/01/10 10:46:28;;;;;;;56.67;30.88;;;3.50;99.90;;;;;;5021906;28;20487;-60
2022/01/10 10:49:03;;;;;;;47.63;21.35;;;3.60;99.90;;;;;;5028424;28;20116;-60
2022/01/10 10:51:32;;;;;;;46.90;20.30;;;3.60;99.90;;;;;;5023909;28;20048;-60
2022/01/10 10:54:09;;;;;;;42.30;21.55;;;3.70;99.90;;;;;;5027315;28;20100;-60
2022/01/10 10:56:38;;;;;;;40.90;19.80;;;3.80;99.90;;;;;;5029900;28;20025;-61
2022/01/10 10:59:07;;;;;;;57.63;24.48;;;3.90;99.90;;;;;;5029447;28;20530;-60
2022/01/10 11:01:36;;;;;;;43.78;21.90;;;3.90;99.90;;;;;;5025658;28;20033;-60
2022/01/10 11:04:03;;;;;;;42.67;20.20;;;4.00;99.90;;;;;;5008435;28;20025;-60
2022/01/10 11:06:31;;;;;;;38.40;18.92;;;4.00;99.90;;;;;;5027659;28;20129;-61
2022/01/10 11:09:01;;;;;;;38.03;17.38;;;4.10;99.90;;;;;;5028836;28;20060;-60
2022/01/10 11:11:28;;;;;;;44.90;23.77;;;4.10;99.90;;;;;;5018963;28;20022;-59
2022/01/10 11:13:56;;;;;;;41.70;20.88;;;4.20;99.90;;;;;;5014984;28;20030;-60
2022/01/10 11:16:23;;;;;;;41.38;21.23;;;4.20;99.90;;;;;;5011053;28;20046;-59
2022/01/10 11:18:49;;;;;;;32.15;18.23;;;4.20;99.90;;;;;;5012224;28;20092;-59
2022/01/10 11:21:16;;;;;;;36.10;17.27;;;4.20;99.90;;;;;;5012205;28;20434;-60
2022/01/10 11:23:44;;;;;;;50.85;21.15;;;4.30;99.90;;;;;;5012089;28;20045;-60
2022/01/10 11:26:11;;;;;;;42.83;17.05;;;4.30;99.90;;;;;;5012926;28;20025;-61
2022/01/10 11:28:52;;;;;;;44.58;20.35;;;4.40;99.90;;;;;;5014530;28;20025;-59
2022/01/10 11:31:27;;;;;;;42.40;16.65;;;4.40;99.90;;;;;;5014718;28;20117;-60
2022/01/10 11:33:54;;;;;;;30.60;16.30;;;4.50;99.90;;;;;;5016711;28;20034;-59
2022/01/10 11:36:23;;;;;;;34.95;16.63;;;4.50;99.90;;;;;;5016060;28;20035;-60
2022/01/10 11:38:55;;;;;;;32.17;15.13;;;4.60;99.90;;;;;;5020544;28;20034;-58
2022/01/10 11:41:24;;;;;;;33.40;15.00;;;4.60;99.90;;;;;;5012262;28;20038;-60
2022/01/10 11:44:07;;;;;;;39.25;17.60;;;4.70;99.90;;;;;;5016022;28;20668;-60
2022/01/10 11:46:42;;;;;;;34.67;15.02;;;4.70;99.90;;;;;;5027420;28;20041;-56
2022/01/10 11:49:20;;;;;;;36.55;15.65;;;4.80;99.90;;;;;;5032496;28;20717;-59
2022/01/10 11:51:52;;;;;;;36.60;15.05;;;4.80;99.90;;;;;;5032888;28;20037;-60
2022/01/10 11:54:19;;;;;;;40.42;19.38;;;4.80;99.90;;;;;;5032466;28;20028;-60
2022/01/10 11:57:10;;;;;;;29.40;13.45;;;4.70;99.90;;;;;;5033434;28;20422;-58
2022/01/10 11:59:42;;;;;;;33.83;14.13;;;4.70;99.90;;;;;;5028552;28;20045;-60
2022/01/10 12:02:17;;;;;;;31.58;16.70;;;4.60;99.90;;;;;;5030033;28;20034;-60
2022/01/10 12:04:44;;;;;;;34.30;13.55;;;4.60;99.90;;;;;;5031490;28;20025;-58
2022/01/10 12:07:11;;;;;;;34.20;12.32;;;4.70;99.90;;;;;;5031252;28;20152;-54
2022/01/10 12:09:38;;;;;;;37.35;16.15;;;4.60;99.90;;;;;;5034342;28;20112;-60
2022/01/10 12:12:04;;;;;;;44.72;19.85;;;4.50;99.90;;;;;;5032980;28;20033;-60
2022/01/10 12:14:31;;;;;;;30.38;13.55;;;4.50;99.90;;;;;;5030732;28;20564;-61
2022/01/10 12:16:58;;;;;;;35.13;17.20;;;4.50;99.90;;;;;;5025404;28;20482;-61
2022/01/10 12:19:24;;;;;;;36.55;11.82;;;4.50;99.90;;;;;;5030163;28;20029;-59
2022/01/10 12:21:50;;;;;;;30.88;12.88;;;4.40;99.90;;;;;;5025881;28;20891;-59
2022/01/10 12:24:17;;;;;;;33.13;13.60;;;4.40;99.90;;;;;;5032328;28;20060;-59
2022/01/10 12:26:43;;;;;;;40.97;16.83;;;4.30;99.90;;;;;;5029528;28;20038;-60
2022/01/10 12:29:11;;;;;;;53.30;20.10;;;4.20;99.90;;;;;;5030672;28;20061;-58
2022/01/10 12:31:38;;;;;;;53.85;23.08;;;4.20;99.90;;;;;;5022850;28;20035;-60
2022/01/10 12:34:05;;;;;;;39.47;16.75;;;4.20;99.90;;;;;;5032034;28;20030;-60
2022/01/10 12:36:32;;;;;;;32.78;15.60;;;4.20;99.90;;;;;;5033231;28;20029;-61
2022/01/10 12:39:09;;;;;;;43.05;15.50;;;4.20;99.90;;;;;;5032586;28;20672;-61
2022/01/10 12:41:35;;;;;;;41.00;17.23;;;4.20;99.90;;;;;;5030473;28;20045;-58
2022/01/10 12:44:01;;;;;;;35.70;15.30;;;4.10;99.90;;;;;;5030248;28;20051;-60
2022/01/10 12:46:31;;;;;;;37.78;15.93;;;4.10;99.90;;;;;;5023571;28;20057;-60